sensor_id;sensor_type;location;lat;lon;timestamp;P1;durP1;ratioP1;P2;durP2;ratioP2
49626;SDS011;35527;54.616;39.786;2022-10-16T00:01:20;6.88;;;3.40;;
49626;SDS011;35527;54.616;39.786;2022-10-16T00:04:25;6.03;;;2.65;;
49626;SDS011;35527;54.616;39.786;2022-10-16T00:07:32;6.47;;;2.50;;
49626;SDS011;35527;54.616;39.786;2022-10-16T00:10:36;5.10;;;2.88;;
49626;SDS011;35527;54.616;39.786;2022-10-16T00:16:46;7.35;;;4.10;;
49626;SDS011;35527;54.616;39.786;2022-10-16T00:19:50;5.07;;;2.70;;
49626;SDS011;35527;54.616;39.786;2022-10-16T00:23:15;6.70;;;4.32;;
49626;SDS011;35527;54.616;39.786;2022-10-16T00:29:22;7.40;;;3.38;;
49626;SDS011;35527;54.616;39.786;2022-10-16T00:32:27;7.88;;;3.88;;
49626;SDS011;35527;54.616;39.786;2022-10-16T00:35:36;8.35;;;5.00;;
49626;SDS011;35527;54.616;39.786;2022-10-16T00:38:40;7.30;;;3.83;;
49626;SDS011;35527;54.616;39.786;2022-10-16T00:41:44;7.47;;;3.40;;
49626;SDS011;35527;54.616;39.786;2022-10-16T00:51:00;4.55;;;2.08;;
49626;SDS011;35527;54.616;39.786;2022-10-16T00:54:04;4.55;;;2.10;;
49626;SDS011;35527;54.616;39.786;2022-10-16T00:57:12;5.38;;;2.50;;
49626;SDS011;35527;54.616;39.786;2022-10-16T01:00:21;5.65;;;2.50;;
49626;SDS011;35527;54.616;39.786;2022-10-16T01:03:30;6.47;;;2.35;;
49626;SDS011;35527;54.616;39.786;2022-10-16T01:13:32;5.90;;;3.40;;
49626;SDS011;35527;54.616;39.786;2022-10-16T01:16:49;5.47;;;2.50;;
49626;SDS011;35527;54.616;39.786;2022-10-16T01:23:36;10.57;;;3.00;;
49626;SDS011;35527;54.616;39.786;2022-10-16T01:30:21;5.43;;;2.47;;
49626;SDS011;35527;54.616;39.786;2022-10-16T01:33:38;5.78;;;3.50;;
49626;SDS011;35527;54.616;39.786;2022-10-16T01:36:49;6.20;;;3.17;;
49626;SDS011;35527;54.616;39.786;2022-10-16T01:39:59;5.00;;;2.67;;
49626;SDS011;35527;54.616;39.786;2022-10-16T01:43:10;4.15;;;1.80;;
49626;SDS011;35527;54.616;39.786;2022-10-16T01:46:17;2.78;;;1.40;;
49626;SDS011;35527;54.616;39.786;2022-10-16T01:49:24;2.67;;;1.23;;
49626;SDS011;35527;54.616;39.786;2022-10-16T01:52:35;3.97;;;1.90;;
49626;SDS011;35527;54.616;39.786;2022-10-16T01:55:45;4.05;;;1.40;;
49626;SDS011;35527;54.616;39.786;2022-10-16T01:58:52;7.45;;;2.20;;
49626;SDS011;35527;54.616;39.786;2022-10-16T02:02:04;5.03;;;1.50;;
49626;SDS011;35527;54.616;39.786;2022-10-16T02:08:17;3.05;;;1.40;;
49626;SDS011;35527;54.616;39.786;2022-10-16T02:11:21;4.75;;;2.15;;
49626;SDS011;35527;54.616;39.786;2022-10-16T02:14:24;4.28;;;1.65;;
49626;SDS011;35527;54.616;39.786;2022-10-16T02:17:30;4.65;;;2.20;;
49626;SDS011;35527;54.616;39.786;2022-10-16T02:20:34;5.38;;;2.20;;
49626;SDS011;35527;54.616;39.786;2022-10-16T02:23:48;4.90;;;1.65;;
49626;SDS011;35527;54.616;39.786;2022-10-16T02:33:45;5.78;;;1.60;;
49626;SDS011;35527;54.616;39.786;2022-10-16T02:36:48;5.38;;;2.35;;
49626;SDS011;35527;54.616;39.786;2022-10-16T02:39:56;4.72;;;2.28;;
49626;SDS011;35527;54.616;39.786;2022-10-16T02:43:02;4.60;;;2.38;;
49626;SDS011;35527;54.616;39.786;2022-10-16T02:46:07;4.55;;;1.80;;
49626;SDS011;35527;54.616;39.786;2022-10-16T02:49:10;6.13;;;2.60;;
49626;SDS011;35527;54.616;39.786;2022-10-16T02:52:16;7.30;;;3.00;;
49626;SDS011;35527;54.616;39.786;2022-10-16T02:55:20;7.85;;;3.13;;
49626;SDS011;35527;54.616;39.786;2022-10-16T02:58:25;8.18;;;2.75;;
49626;SDS011;35527;54.616;39.786;2022-10-16T03:01:32;6.45;;;2.95;;
49626;SDS011;35527;54.616;39.786;2022-10-16T03:04:35;7.13;;;3.20;;
49626;SDS011;35527;54.616;39.786;2022-10-16T03:07:40;6.65;;;1.98;;
49626;SDS011;35527;54.616;39.786;2022-10-16T03:10:45;6.35;;;2.08;;
49626;SDS011;35527;54.616;39.786;2022-10-16T03:13:47;6.32;;;3.40;;
49626;SDS011;35527;54.616;39.786;2022-10-16T03:16:50;7.45;;;2.53;;
49626;SDS011;35527;54.616;39.786;2022-10-16T03:19:53;4.75;;;2.25;;
49626;SDS011;35527;54.616;39.786;2022-10-16T03:22:56;8.00;;;3.30;;
49626;SDS011;35527;54.616;39.786;2022-10-16T03:26:00;5.53;;;2.88;;
49626;SDS011;35527;54.616;39.786;2022-10-16T03:29:05;5.00;;;2.30;;
49626;SDS011;35527;54.616;39.786;2022-10-16T03:32:11;8.93;;;3.65;;
49626;SDS011;35527;54.616;39.786;2022-10-16T03:35:17;8.40;;;4.00;;
49626;SDS011;35527;54.616;39.786;2022-10-16T03:38:20;7.30;;;3.80;;
49626;SDS011;35527;54.616;39.786;2022-10-16T03:41:24;8.55;;;4.10;;
49626;SDS011;35527;54.616;39.786;2022-10-16T03:44:28;8.40;;;2.83;;
49626;SDS011;35527;54.616;39.786;2022-10-16T03:47:32;5.93;;;2.67;;
49626;SDS011;35527;54.616;39.786;2022-10-16T03:50:35;8.85;;;4.43;;
49626;SDS011;35527;54.616;39.786;2022-10-16T03:53:40;10.37;;;5.33;;
49626;SDS011;35527;54.616;39.786;2022-10-16T03:56:45;8.23;;;3.20;;
49626;SDS011;35527;54.616;39.786;2022-10-16T03:59:49;10.00;;;3.58;;
49626;SDS011;35527;54.616;39.786;2022-10-16T04:02:52;7.65;;;3.17;;
49626;SDS011;35527;54.616;39.786;2022-10-16T04:05:56;6.03;;;2.53;;
49626;SDS011;35527;54.616;39.786;2022-10-16T04:09:02;9.93;;;5.10;;
49626;SDS011;35527;54.616;39.786;2022-10-16T04:12:05;7.28;;;3.60;;
49626;SDS011;35527;54.616;39.786;2022-10-16T04:15:08;5.05;;;2.30;;
49626;SDS011;35527;54.616;39.786;2022-10-16T04:18:11;10.77;;;4.97;;
49626;SDS011;35527;54.616;39.786;2022-10-16T04:21:19;7.05;;;3.22;;
49626;SDS011;35527;54.616;39.786;2022-10-16T04:24:23;7.43;;;3.75;;
49626;SDS011;35527;54.616;39.786;2022-10-16T04:27:26;7.57;;;2.58;;
49626;SDS011;35527;54.616;39.786;2022-10-16T04:30:29;8.70;;;4.38;;
49626;SDS011;35527;54.616;39.786;2022-10-16T04:33:36;10.85;;;4.30;;
49626;SDS011;35527;54.616;39.786;2022-10-16T04:36:39;6.72;;;2.55;;
49626;SDS011;35527;54.616;39.786;2022-10-16T04:39:43;6.55;;;2.80;;
49626;SDS011;35527;54.616;39.786;2022-10-16T04:42:45;9.00;;;4.22;;
49626;SDS011;35527;54.616;39.786;2022-10-16T04:45:51;8.07;;;2.80;;
49626;SDS011;35527;54.616;39.786;2022-10-16T04:48:58;7.57;;;2.85;;
49626;SDS011;35527;54.616;39.786;2022-10-16T04:52:01;6.65;;;2.92;;
49626;SDS011;35527;54.616;39.786;2022-10-16T04:55:08;9.13;;;4.13;;
49626;SDS011;35527;54.616;39.786;2022-10-16T04:58:13;6.82;;;3.30;;
49626;SDS011;35527;54.616;39.786;2022-10-16T05:01:19;9.95;;;4.55;;
49626;SDS011;35527;54.616;39.786;2022-10-16T05:04:24;9.85;;;4.32;;
49626;SDS011;35527;54.616;39.786;2022-10-16T05:07:27;10.82;;;3.45;;
49626;SDS011;35527;54.616;39.786;2022-10-16T05:10:33;8.40;;;4.93;;
49626;SDS011;35527;54.616;39.786;2022-10-16T05:13:43;8.95;;;4.22;;
49626;SDS011;35527;54.616;39.786;2022-10-16T05:16:45;10.48;;;5.20;;
49626;SDS011;35527;54.616;39.786;2022-10-16T05:19:52;8.65;;;3.17;;
49626;SDS011;35527;54.616;39.786;2022-10-16T05:23:20;11.48;;;4.65;;
49626;SDS011;35527;54.616;39.786;2022-10-16T05:26:29;7.68;;;3.22;;
49626;SDS011;35527;54.616;39.786;2022-10-16T05:29:34;10.18;;;4.68;;
49626;SDS011;35527;54.616;39.786;2022-10-16T05:32:39;8.65;;;4.65;;
49626;SDS011;35527;54.616;39.786;2022-10-16T05:35:46;18.20;;;3.60;;
49626;SDS011;35527;54.616;39.786;2022-10-16T05:38:51;9.52;;;4.82;;
49626;SDS011;35527;54.616;39.786;2022-10-16T05:41:53;9.43;;;4.53;;
49626;SDS011;35527;54.616;39.786;2022-10-16T05:44:56;10.88;;;4.68;;
49626;SDS011;35527;54.616;39.786;2022-10-16T05:47:59;8.32;;;2.72;;
49626;SDS011;35527;54.616;39.786;2022-10-16T05:51:10;8.23;;;4.45;;
49626;SDS011;35527;54.616;39.786;2022-10-16T05:54:17;9.23;;;4.40;;
49626;SDS011;35527;54.616;39.786;2022-10-16T05:57:21;8.13;;;3.90;;
49626;SDS011;35527;54.616;39.786;2022-10-16T06:00:26;8.48;;;4.15;;
49626;SDS011;35527;54.616;39.786;2022-10-16T06:07:03;9.65;;;4.38;;
49626;SDS011;35527;54.616;39.786;2022-10-16T06:10:06;7.90;;;4.35;;
49626;SDS011;35527;54.616;39.786;2022-10-16T06:13:09;7.90;;;4.00;;
49626;SDS011;35527;54.616;39.786;2022-10-16T06:19:42;6.93;;;3.53;;
49626;SDS011;35527;54.616;39.786;2022-10-16T06:22:46;8.45;;;3.90;;
49626;SDS011;35527;54.616;39.786;2022-10-16T06:25:52;8.63;;;3.65;;
49626;SDS011;35527;54.616;39.786;2022-10-16T06:28:59;7.82;;;3.85;;
49626;SDS011;35527;54.616;39.786;2022-10-16T06:32:02;8.23;;;3.40;;
49626;SDS011;35527;54.616;39.786;2022-10-16T06:35:07;9.82;;;3.38;;
49626;SDS011;35527;54.616;39.786;2022-10-16T06:38:16;10.07;;;3.58;;
49626;SDS011;35527;54.616;39.786;2022-10-16T06:41:21;6.15;;;3.55;;
49626;SDS011;35527;54.616;39.786;2022-10-16T06:44:25;7.38;;;3.47;;
49626;SDS011;35527;54.616;39.786;2022-10-16T06:47:27;6.63;;;3.08;;
49626;SDS011;35527;54.616;39.786;2022-10-16T06:50:31;7.35;;;3.40;;
49626;SDS011;35527;54.616;39.786;2022-10-16T06:53:38;7.13;;;3.10;;
49626;SDS011;35527;54.616;39.786;2022-10-16T06:56:52;7.60;;;3.30;;
49626;SDS011;35527;54.616;39.786;2022-10-16T06:59:58;8.05;;;3.40;;
49626;SDS011;35527;54.616;39.786;2022-10-16T07:03:01;6.15;;;3.55;;
49626;SDS011;35527;54.616;39.786;2022-10-16T07:06:08;6.78;;;3.53;;
49626;SDS011;35527;54.616;39.786;2022-10-16T07:09:13;6.93;;;3.10;;
49626;SDS011;35527;54.616;39.786;2022-10-16T07:12:17;7.25;;;3.42;;
49626;SDS011;35527;54.616;39.786;2022-10-16T07:15:21;8.48;;;3.92;;
49626;SDS011;35527;54.616;39.786;2022-10-16T07:18:25;7.53;;;3.78;;
49626;SDS011;35527;54.616;39.786;2022-10-16T07:21:35;6.35;;;3.38;;
49626;SDS011;35527;54.616;39.786;2022-10-16T07:25:04;9.43;;;3.30;;
49626;SDS011;35527;54.616;39.786;2022-10-16T07:28:11;13.18;;;4.80;;
49626;SDS011;35527;54.616;39.786;2022-10-16T07:31:15;10.77;;;4.88;;
49626;SDS011;35527;54.616;39.786;2022-10-16T07:34:19;12.15;;;4.60;;
49626;SDS011;35527;54.616;39.786;2022-10-16T07:37:25;11.20;;;5.03;;
49626;SDS011;35527;54.616;39.786;2022-10-16T07:40:29;10.52;;;5.82;;
49626;SDS011;35527;54.616;39.786;2022-10-16T07:43:33;10.90;;;5.88;;
49626;SDS011;35527;54.616;39.786;2022-10-16T07:46:36;8.80;;;4.50;;
49626;SDS011;35527;54.616;39.786;2022-10-16T07:49:39;12.38;;;6.10;;
49626;SDS011;35527;54.616;39.786;2022-10-16T07:52:45;10.52;;;6.88;;
49626;SDS011;35527;54.616;39.786;2022-10-16T07:55:48;9.05;;;4.97;;
49626;SDS011;35527;54.616;39.786;2022-10-16T07:58:51;8.57;;;4.25;;
49626;SDS011;35527;54.616;39.786;2022-10-16T08:01:57;11.00;;;4.85;;
49626;SDS011;35527;54.616;39.786;2022-10-16T08:05:03;10.70;;;4.45;;
49626;SDS011;35527;54.616;39.786;2022-10-16T08:08:10;9.27;;;4.03;;
49626;SDS011;35527;54.616;39.786;2022-10-16T08:11:16;8.32;;;3.92;;
49626;SDS011;35527;54.616;39.786;2022-10-16T08:14:22;10.02;;;4.38;;
49626;SDS011;35527;54.616;39.786;2022-10-16T08:17:27;9.07;;;4.55;;
49626;SDS011;35527;54.616;39.786;2022-10-16T08:20:31;9.80;;;4.20;;
49626;SDS011;35527;54.616;39.786;2022-10-16T08:23:36;7.70;;;3.70;;
49626;SDS011;35527;54.616;39.786;2022-10-16T08:27:04;9.38;;;4.00;;
49626;SDS011;35527;54.616;39.786;2022-10-16T08:33:15;9.40;;;3.83;;
49626;SDS011;35527;54.616;39.786;2022-10-16T08:36:20;8.45;;;4.43;;
49626;SDS011;35527;54.616;39.786;2022-10-16T08:39:26;6.75;;;3.72;;
49626;SDS011;35527;54.616;39.786;2022-10-16T08:42:40;7.43;;;3.33;;
49626;SDS011;35527;54.616;39.786;2022-10-16T08:50:08;7.05;;;3.47;;
49626;SDS011;35527;54.616;39.786;2022-10-16T08:53:16;8.43;;;3.80;;
49626;SDS011;35527;54.616;39.786;2022-10-16T08:56:26;6.78;;;3.40;;
49626;SDS011;35527;54.616;39.786;2022-10-16T08:59:30;6.45;;;3.35;;
49626;SDS011;35527;54.616;39.786;2022-10-16T09:12:58;8.90;;;3.17;;
49626;SDS011;35527;54.616;39.786;2022-10-16T09:16:44;5.15;;;2.65;;
49626;SDS011;35527;54.616;39.786;2022-10-16T09:23:36;7.80;;;2.72;;
49626;SDS011;35527;54.616;39.786;2022-10-16T09:27:11;5.95;;;3.08;;
49626;SDS011;35527;54.616;39.786;2022-10-16T09:30:18;5.25;;;2.65;;
49626;SDS011;35527;54.616;39.786;2022-10-16T09:33:24;4.65;;;2.45;;
49626;SDS011;35527;54.616;39.786;2022-10-16T09:36:39;5.40;;;2.72;;
49626;SDS011;35527;54.616;39.786;2022-10-16T09:39:49;4.90;;;2.20;;
49626;SDS011;35527;54.616;39.786;2022-10-16T09:46:27;3.95;;;1.92;;
49626;SDS011;35527;54.616;39.786;2022-10-16T09:49:34;5.97;;;2.47;;
49626;SDS011;35527;54.616;39.786;2022-10-16T09:52:39;5.15;;;2.95;;
49626;SDS011;35527;54.616;39.786;2022-10-16T09:55:49;6.15;;;2.58;;
49626;SDS011;35527;54.616;39.786;2022-10-16T09:58:57;4.82;;;2.25;;
49626;SDS011;35527;54.616;39.786;2022-10-16T10:02:04;4.97;;;2.25;;
49626;SDS011;35527;54.616;39.786;2022-10-16T10:05:24;5.80;;;2.40;;
49626;SDS011;35527;54.616;39.786;2022-10-16T10:08:30;5.65;;;2.55;;
49626;SDS011;35527;54.616;39.786;2022-10-16T10:17:54;6.95;;;2.15;;
49626;SDS011;35527;54.616;39.786;2022-10-16T10:21:02;4.70;;;2.15;;
49626;SDS011;35527;54.616;39.786;2022-10-16T10:24:15;5.38;;;2.20;;
49626;SDS011;35527;54.616;39.786;2022-10-16T10:27:19;5.22;;;2.33;;
49626;SDS011;35527;54.616;39.786;2022-10-16T10:37:42;4.88;;;2.22;;
49626;SDS011;35527;54.616;39.786;2022-10-16T11:02:48;10.82;;;4.80;;
49626;SDS011;35527;54.616;39.786;2022-10-16T11:06:07;10.77;;;5.18;;
49626;SDS011;35527;54.616;39.786;2022-10-16T11:09:18;11.27;;;5.68;;
49626;SDS011;35527;54.616;39.786;2022-10-16T11:12:29;11.95;;;5.90;;
49626;SDS011;35527;54.616;39.786;2022-10-16T11:15:43;8.45;;;4.95;;
49626;SDS011;35527;54.616;39.786;2022-10-16T11:25:30;8.30;;;4.57;;
49626;SDS011;35527;54.616;39.786;2022-10-16T11:29:02;7.63;;;2.92;;
49626;SDS011;35527;54.616;39.786;2022-10-16T11:32:21;5.88;;;3.30;;
49626;SDS011;35527;54.616;39.786;2022-10-16T11:35:41;6.47;;;3.17;;
49626;SDS011;35527;54.616;39.786;2022-10-16T11:48:43;8.68;;;3.45;;
49626;SDS011;35527;54.616;39.786;2022-10-16T12:02:15;8.43;;;2.88;;
49626;SDS011;35527;54.616;39.786;2022-10-16T12:08:47;6.50;;;2.78;;
49626;SDS011;35527;54.616;39.786;2022-10-16T12:11:51;7.40;;;2.90;;
49626;SDS011;35527;54.616;39.786;2022-10-16T12:15:02;9.95;;;3.30;;
49626;SDS011;35527;54.616;39.786;2022-10-16T12:18:22;7.82;;;3.10;;
49626;SDS011;35527;54.616;39.786;2022-10-16T12:21:29;9.48;;;3.60;;
49626;SDS011;35527;54.616;39.786;2022-10-16T12:24:39;9.15;;;2.63;;
49626;SDS011;35527;54.616;39.786;2022-10-16T12:28:20;6.53;;;2.80;;
49626;SDS011;35527;54.616;39.786;2022-10-16T12:31:25;6.78;;;2.63;;
49626;SDS011;35527;54.616;39.786;2022-10-16T12:34:48;7.60;;;3.10;;
49626;SDS011;35527;54.616;39.786;2022-10-16T12:37:53;6.67;;;2.93;;
49626;SDS011;35527;54.616;39.786;2022-10-16T12:41:04;8.00;;;2.88;;
49626;SDS011;35527;54.616;39.786;2022-10-16T12:44:22;8.93;;;2.88;;
49626;SDS011;35527;54.616;39.786;2022-10-16T12:53:43;12.20;;;5.57;;
49626;SDS011;35527;54.616;39.786;2022-10-16T12:56:50;9.05;;;3.78;;
49626;SDS011;35527;54.616;39.786;2022-10-16T13:03:53;5.82;;;2.88;;
49626;SDS011;35527;54.616;39.786;2022-10-16T13:30:53;13.13;;;3.85;;
49626;SDS011;35527;54.616;39.786;2022-10-16T13:33:58;9.23;;;5.18;;
49626;SDS011;35527;54.616;39.786;2022-10-16T13:37:15;8.00;;;3.85;;
49626;SDS011;35527;54.616;39.786;2022-10-16T13:40:22;10.23;;;5.22;;
49626;SDS011;35527;54.616;39.786;2022-10-16T13:47:01;9.45;;;5.00;;
49626;SDS011;35527;54.616;39.786;2022-10-16T13:50:12;11.40;;;6.03;;
49626;SDS011;35527;54.616;39.786;2022-10-16T13:53:16;8.43;;;4.40;;
49626;SDS011;35527;54.616;39.786;2022-10-16T13:56:27;6.97;;;3.55;;
49626;SDS011;35527;54.616;39.786;2022-10-16T13:59:34;8.05;;;4.57;;
49626;SDS011;35527;54.616;39.786;2022-10-16T14:02:42;6.80;;;3.70;;
49626;SDS011;35527;54.616;39.786;2022-10-16T14:05:49;5.90;;;3.35;;
49626;SDS011;35527;54.616;39.786;2022-10-16T14:12:11;6.97;;;3.90;;
49626;SDS011;35527;54.616;39.786;2022-10-16T14:15:16;7.53;;;3.38;;
49626;SDS011;35527;54.616;39.786;2022-10-16T14:18:55;7.18;;;4.30;;
49626;SDS011;35527;54.616;39.786;2022-10-16T14:22:03;9.32;;;4.93;;
49626;SDS011;35527;54.616;39.786;2022-10-16T14:25:38;9.20;;;5.70;;
49626;SDS011;35527;54.616;39.786;2022-10-16T14:28:43;12.45;;;6.80;;
49626;SDS011;35527;54.616;39.786;2022-10-16T14:35:01;14.73;;;8.13;;
49626;SDS011;35527;54.616;39.786;2022-10-16T14:38:05;13.63;;;4.70;;
49626;SDS011;35527;54.616;39.786;2022-10-16T14:41:20;6.20;;;3.20;;
49626;SDS011;35527;54.616;39.786;2022-10-16T14:44:30;7.63;;;2.70;;
49626;SDS011;35527;54.616;39.786;2022-10-16T14:47:36;8.70;;;2.70;;
49626;SDS011;35527;54.616;39.786;2022-10-16T14:50:54;5.72;;;2.53;;
49626;SDS011;35527;54.616;39.786;2022-10-16T14:53:58;7.75;;;4.05;;
49626;SDS011;35527;54.616;39.786;2022-10-16T14:57:15;7.60;;;4.18;;
49626;SDS011;35527;54.616;39.786;2022-10-16T15:00:21;9.13;;;4.95;;
49626;SDS011;35527;54.616;39.786;2022-10-16T15:03:26;10.85;;;4.18;;
49626;SDS011;35527;54.616;39.786;2022-10-16T15:06:29;7.47;;;3.10;;
49626;SDS011;35527;54.616;39.786;2022-10-16T15:09:33;4.63;;;2.42;;
49626;SDS011;35527;54.616;39.786;2022-10-16T15:12:37;8.07;;;3.75;;
49626;SDS011;35527;54.616;39.786;2022-10-16T15:15:44;9.98;;;3.45;;
49626;SDS011;35527;54.616;39.786;2022-10-16T15:18:47;5.65;;;2.78;;
49626;SDS011;35527;54.616;39.786;2022-10-16T15:21:51;6.50;;;2.90;;
49626;SDS011;35527;54.616;39.786;2022-10-16T15:24:55;6.22;;;3.22;;
49626;SDS011;35527;54.616;39.786;2022-10-16T15:27:59;5.63;;;2.60;;
49626;SDS011;35527;54.616;39.786;2022-10-16T15:31:05;6.38;;;2.60;;
49626;SDS011;35527;54.616;39.786;2022-10-16T15:34:11;9.98;;;3.92;;
49626;SDS011;35527;54.616;39.786;2022-10-16T15:37:17;6.60;;;3.25;;
49626;SDS011;35527;54.616;39.786;2022-10-16T15:40:22;5.43;;;2.63;;
49626;SDS011;35527;54.616;39.786;2022-10-16T15:43:28;6.28;;;3.42;;
49626;SDS011;35527;54.616;39.786;2022-10-16T15:46:32;7.20;;;3.35;;
49626;SDS011;35527;54.616;39.786;2022-10-16T15:49:36;7.93;;;3.55;;
49626;SDS011;35527;54.616;39.786;2022-10-16T15:52:39;7.80;;;3.70;;
49626;SDS011;35527;54.616;39.786;2022-10-16T15:55:43;8.20;;;3.60;;
49626;SDS011;35527;54.616;39.786;2022-10-16T15:58:45;11.02;;;3.83;;
49626;SDS011;35527;54.616;39.786;2022-10-16T16:01:49;7.57;;;4.10;;
49626;SDS011;35527;54.616;39.786;2022-10-16T16:04:59;6.80;;;3.35;;
49626;SDS011;35527;54.616;39.786;2022-10-16T16:08:02;5.63;;;3.10;;
49626;SDS011;35527;54.616;39.786;2022-10-16T16:11:07;5.75;;;2.50;;
49626;SDS011;35527;54.616;39.786;2022-10-16T16:14:13;5.43;;;2.30;;
49626;SDS011;35527;54.616;39.786;2022-10-16T16:17:17;5.30;;;2.35;;
49626;SDS011;35527;54.616;39.786;2022-10-16T16:20:20;7.40;;;3.35;;
49626;SDS011;35527;54.616;39.786;2022-10-16T16:23:24;5.53;;;3.15;;
49626;SDS011;35527;54.616;39.786;2022-10-16T16:26:29;6.22;;;2.88;;
49626;SDS011;35527;54.616;39.786;2022-10-16T16:29:36;9.77;;;3.35;;
49626;SDS011;35527;54.616;39.786;2022-10-16T16:32:41;5.13;;;2.37;;
49626;SDS011;35527;54.616;39.786;2022-10-16T16:35:47;9.68;;;3.47;;
49626;SDS011;35527;54.616;39.786;2022-10-16T16:38:51;7.43;;;3.05;;
49626;SDS011;35527;54.616;39.786;2022-10-16T16:41:57;10.35;;;3.33;;
49626;SDS011;35527;54.616;39.786;2022-10-16T16:45:06;6.47;;;3.00;;
49626;SDS011;35527;54.616;39.786;2022-10-16T16:48:09;5.55;;;2.92;;
49626;SDS011;35527;54.616;39.786;2022-10-16T16:51:16;6.28;;;2.10;;
49626;SDS011;35527;54.616;39.786;2022-10-16T16:54:21;4.68;;;2.08;;
49626;SDS011;35527;54.616;39.786;2022-10-16T16:57:25;4.65;;;2.20;;
49626;SDS011;35527;54.616;39.786;2022-10-16T17:00:28;7.20;;;2.50;;
49626;SDS011;35527;54.616;39.786;2022-10-16T17:03:34;5.53;;;1.95;;
49626;SDS011;35527;54.616;39.786;2022-10-16T17:06:37;19.50;;;3.22;;
49626;SDS011;35527;54.616;39.786;2022-10-16T17:09:42;7.03;;;2.08;;
49626;SDS011;35527;54.616;39.786;2022-10-16T17:12:49;7.88;;;3.50;;
49626;SDS011;35527;54.616;39.786;2022-10-16T17:15:58;4.67;;;2.03;;
49626;SDS011;35527;54.616;39.786;2022-10-16T17:19:06;6.05;;;2.17;;
49626;SDS011;35527;54.616;39.786;2022-10-16T17:22:15;4.30;;;2.15;;
49626;SDS011;35527;54.616;39.786;2022-10-16T17:25:21;5.03;;;2.00;;
49626;SDS011;35527;54.616;39.786;2022-10-16T17:28:26;7.65;;;2.58;;
49626;SDS011;35527;54.616;39.786;2022-10-16T17:31:33;7.50;;;2.00;;
49626;SDS011;35527;54.616;39.786;2022-10-16T17:34:38;7.63;;;2.53;;
49626;SDS011;35527;54.616;39.786;2022-10-16T17:37:43;4.23;;;2.00;;
49626;SDS011;35527;54.616;39.786;2022-10-16T17:40:48;3.58;;;1.98;;
49626;SDS011;35527;54.616;39.786;2022-10-16T17:43:51;6.53;;;2.80;;
49626;SDS011;35527;54.616;39.786;2022-10-16T17:46:55;8.57;;;3.13;;
49626;SDS011;35527;54.616;39.786;2022-10-16T17:49:58;5.07;;;2.42;;
49626;SDS011;35527;54.616;39.786;2022-10-16T17:53:05;6.70;;;3.42;;
49626;SDS011;35527;54.616;39.786;2022-10-16T17:56:11;4.40;;;1.77;;
49626;SDS011;35527;54.616;39.786;2022-10-16T17:59:15;4.82;;;1.95;;
49626;SDS011;35527;54.616;39.786;2022-10-16T18:02:21;6.25;;;2.95;;
49626;SDS011;35527;54.616;39.786;2022-10-16T18:05:25;5.80;;;2.17;;
49626;SDS011;35527;54.616;39.786;2022-10-16T18:08:28;3.83;;;1.52;;
49626;SDS011;35527;54.616;39.786;2022-10-16T18:11:32;3.30;;;1.83;;
49626;SDS011;35527;54.616;39.786;2022-10-16T18:14:36;8.25;;;2.42;;
49626;SDS011;35527;54.616;39.786;2022-10-16T18:17:41;7.95;;;2.65;;
49626;SDS011;35527;54.616;39.786;2022-10-16T18:21:10;5.25;;;2.63;;
49626;SDS011;35527;54.616;39.786;2022-10-16T18:24:15;6.20;;;2.50;;
49626;SDS011;35527;54.616;39.786;2022-10-16T18:27:19;6.40;;;2.70;;
49626;SDS011;35527;54.616;39.786;2022-10-16T18:30:23;5.45;;;2.15;;
49626;SDS011;35527;54.616;39.786;2022-10-16T18:33:26;6.43;;;2.40;;
49626;SDS011;35527;54.616;39.786;2022-10-16T18:36:29;4.20;;;2.08;;
49626;SDS011;35527;54.616;39.786;2022-10-16T18:39:37;6.85;;;3.10;;
49626;SDS011;35527;54.616;39.786;2022-10-16T18:42:44;8.18;;;3.33;;
49626;SDS011;35527;54.616;39.786;2022-10-16T18:45:55;9.05;;;2.70;;
49626;SDS011;35527;54.616;39.786;2022-10-16T18:48:58;7.20;;;2.65;;
49626;SDS011;35527;54.616;39.786;2022-10-16T18:52:04;7.45;;;3.85;;
49626;SDS011;35527;54.616;39.786;2022-10-16T18:55:09;6.45;;;2.70;;
49626;SDS011;35527;54.616;39.786;2022-10-16T18:58:12;10.32;;;3.35;;
49626;SDS011;35527;54.616;39.786;2022-10-16T19:01:16;8.93;;;2.85;;
49626;SDS011;35527;54.616;39.786;2022-10-16T19:04:24;6.55;;;2.80;;
49626;SDS011;35527;54.616;39.786;2022-10-16T19:07:29;6.93;;;2.80;;
49626;SDS011;35527;54.616;39.786;2022-10-16T19:10:34;8.70;;;3.22;;
49626;SDS011;35527;54.616;39.786;2022-10-16T19:13:38;8.65;;;3.42;;
49626;SDS011;35527;54.616;39.786;2022-10-16T19:16:43;10.30;;;4.20;;
49626;SDS011;35527;54.616;39.786;2022-10-16T19:19:46;7.80;;;2.83;;
49626;SDS011;35527;54.616;39.786;2022-10-16T19:22:49;8.10;;;3.83;;
49626;SDS011;35527;54.616;39.786;2022-10-16T19:26:05;15.35;;;5.28;;
49626;SDS011;35527;54.616;39.786;2022-10-16T19:29:19;6.43;;;2.97;;
49626;SDS011;35527;54.616;39.786;2022-10-16T19:32:22;13.15;;;5.97;;
49626;SDS011;35527;54.616;39.786;2022-10-16T19:35:25;12.95;;;4.30;;
49626;SDS011;35527;54.616;39.786;2022-10-16T19:38:29;10.57;;;3.40;;
49626;SDS011;35527;54.616;39.786;2022-10-16T19:41:35;11.15;;;4.38;;
49626;SDS011;35527;54.616;39.786;2022-10-16T19:44:41;10.27;;;3.67;;
49626;SDS011;35527;54.616;39.786;2022-10-16T19:47:43;14.98;;;3.50;;
49626;SDS011;35527;54.616;39.786;2022-10-16T19:50:48;15.80;;;6.50;;
49626;SDS011;35527;54.616;39.786;2022-10-16T19:53:56;11.80;;;5.25;;
49626;SDS011;35527;54.616;39.786;2022-10-16T19:57:05;8.77;;;2.95;;
49626;SDS011;35527;54.616;39.786;2022-10-16T20:03:11;13.20;;;5.38;;
49626;SDS011;35527;54.616;39.786;2022-10-16T20:06:15;14.20;;;5.82;;
49626;SDS011;35527;54.616;39.786;2022-10-16T20:09:18;7.28;;;3.25;;
49626;SDS011;35527;54.616;39.786;2022-10-16T20:12:21;9.13;;;3.25;;
49626;SDS011;35527;54.616;39.786;2022-10-16T20:15:24;7.70;;;2.35;;
49626;SDS011;35527;54.616;39.786;2022-10-16T20:18:27;10.57;;;4.40;;
49626;SDS011;35527;54.616;39.786;2022-10-16T20:21:32;7.97;;;2.72;;
49626;SDS011;35527;54.616;39.786;2022-10-16T20:25:00;6.78;;;2.38;;
49626;SDS011;35527;54.616;39.786;2022-10-16T20:28:07;4.90;;;2.58;;
49626;SDS011;35527;54.616;39.786;2022-10-16T20:31:31;8.13;;;3.72;;
49626;SDS011;35527;54.616;39.786;2022-10-16T20:34:35;8.25;;;3.50;;
49626;SDS011;35527;54.616;39.786;2022-10-16T20:37:40;6.80;;;3.40;;
49626;SDS011;35527;54.616;39.786;2022-10-16T20:40:46;8.27;;;3.63;;
49626;SDS011;35527;54.616;39.786;2022-10-16T20:43:51;5.65;;;3.00;;
49626;SDS011;35527;54.616;39.786;2022-10-16T20:46:57;5.53;;;2.65;;
49626;SDS011;35527;54.616;39.786;2022-10-16T20:50:03;9.60;;;4.25;;
49626;SDS011;35527;54.616;39.786;2022-10-16T20:53:06;8.20;;;3.97;;
49626;SDS011;35527;54.616;39.786;2022-10-16T20:56:11;3.57;;;1.97;;
49626;SDS011;35527;54.616;39.786;2022-10-16T20:59:18;6.47;;;3.47;;
49626;SDS011;35527;54.616;39.786;2022-10-16T21:02:23;4.63;;;2.05;;
49626;SDS011;35527;54.616;39.786;2022-10-16T21:05:28;4.65;;;2.15;;
49626;SDS011;35527;54.616;39.786;2022-10-16T21:08:34;5.50;;;2.45;;
49626;SDS011;35527;54.616;39.786;2022-10-16T21:11:49;7.25;;;3.47;;
49626;SDS011;35527;54.616;39.786;2022-10-16T21:14:54;5.30;;;3.10;;
49626;SDS011;35527;54.616;39.786;2022-10-16T21:18:15;6.63;;;3.30;;
49626;SDS011;35527;54.616;39.786;2022-10-16T21:24:25;8.07;;;3.95;;
49626;SDS011;35527;54.616;39.786;2022-10-16T21:27:29;4.50;;;2.30;;
49626;SDS011;35527;54.616;39.786;2022-10-16T21:30:32;8.10;;;4.13;;
49626;SDS011;35527;54.616;39.786;2022-10-16T21:33:39;6.28;;;2.88;;